createdAt,value
2022-10-30T00:01:12.692Z,5.10
2022-10-30T00:04:26.433Z,5.22
2022-10-30T00:08:05.208Z,5.53
2022-10-30T00:11:55.284Z,5.35
2022-10-30T00:15:21.576Z,5.18
2022-10-30T00:18:38.249Z,4.63
2022-10-30T00:29:01.125Z,4.63
2022-10-30T00:32:48.456Z,4.20
2022-10-30T00:39:25.738Z,4.70
2022-10-30T00:42:36.229Z,4.40
2022-10-30T00:45:47.737Z,5.85
2022-10-30T00:48:59.968Z,4.95
2022-10-30T00:52:29.104Z,4.70
2022-10-30T00:56:00.700Z,4.95
2022-10-30T00:59:13.446Z,4.47
2022-10-30T01:02:31.018Z,5.05
2022-10-30T01:05:44.967Z,4.82
2022-10-30T01:09:00.140Z,5.30
2022-10-30T01:12:13.421Z,4.68
2022-10-30T01:15:30.355Z,4.75
2022-10-30T01:18:50.537Z,4.80
2022-10-30T01:22:20.843Z,4.75
2022-10-30T01:25:49.904Z,4.35
2022-10-30T01:29:20.424Z,4.18
2022-10-30T01:33:01.294Z,4.45
2022-10-30T01:36:31.795Z,4.20
2022-10-30T01:39:49.931Z,4.18
2022-10-30T01:42:59.547Z,4.85
2022-10-30T01:46:43.476Z,5.13
2022-10-30T01:50:21.912Z,4.53
2022-10-30T01:53:45.796Z,4.95
2022-10-30T01:57:11.111Z,4.75
2022-10-30T02:00:26.779Z,4.97
2022-10-30T02:03:40.092Z,4.78
2022-10-30T02:06:47.686Z,4.60
2022-10-30T02:10:07.757Z,5.13
2022-10-30T02:13:14.644Z,4.95
2022-10-30T02:16:20.906Z,5.03
2022-10-30T02:19:28.841Z,4.82
2022-10-30T02:22:39.534Z,4.22
2022-10-30T02:25:48.841Z,4.80
2022-10-30T02:28:58.266Z,4.80
2022-10-30T02:32:05.911Z,5.38
2022-10-30T02:35:15.478Z,5.07
2022-10-30T02:38:26.691Z,4.22
2022-10-30T02:41:33.160Z,4.05
2022-10-30T02:44:42.809Z,4.97
2022-10-30T02:47:50.003Z,4.38
2022-10-30T02:50:56.131Z,3.75
2022-10-30T02:54:07.147Z,4.50
2022-10-30T02:57:15.684Z,4.60
2022-10-30T03:00:23.643Z,3.90
2022-10-30T03:03:31.559Z,4.25
2022-10-30T03:06:38.040Z,3.90
2022-10-30T03:09:46.269Z,4.35
2022-10-30T03:12:52.521Z,4.53
2022-10-30T03:16:06.244Z,3.97
2022-10-30T03:19:13.133Z,3.70
2022-10-30T03:22:19.784Z,4.05
2022-10-30T03:25:28.978Z,4.28
2022-10-30T03:28:37.112Z,4.28
2022-10-30T03:31:43.518Z,3.47
2022-10-30T03:34:50.031Z,3.70
2022-10-30T03:37:59.828Z,3.33
2022-10-30T03:41:08.390Z,2.97
2022-10-30T03:44:14.667Z,3.45
2022-10-30T03:47:21.859Z,3.78
2022-10-30T03:50:29.849Z,3.60
2022-10-30T03:53:38.554Z,3.63
2022-10-30T03:56:47.713Z,3.47
2022-10-30T03:59:53.464Z,3.70
2022-10-30T04:03:00.824Z,3.72
2022-10-30T04:06:08.562Z,4.15
2022-10-30T04:09:15.811Z,3.10
2022-10-30T04:12:24.392Z,4.13
2022-10-30T04:15:31.968Z,3.95
2022-10-30T04:18:41.715Z,3.83
2022-10-30T04:21:54.877Z,3.33
2022-10-30T04:25:03.029Z,3.47
2022-10-30T04:28:13.133Z,3.20
2022-10-30T04:31:22.861Z,4.32
2022-10-30T04:34:31.071Z,3.50
2022-10-30T04:37:43.105Z,4.57
2022-10-30T04:40:52.006Z,3.90
2022-10-30T04:44:04.439Z,3.83
2022-10-30T04:47:12.495Z,3.30
2022-10-30T04:50:22.993Z,3.45
2022-10-30T04:53:36.730Z,3.50
2022-10-30T04:56:44.634Z,3.08
2022-10-30T04:59:51.831Z,3.72
2022-10-30T05:02:58.218Z,3.95
2022-10-30T05:06:07.847Z,3.47
2022-10-30T05:09:17.176Z,3.63
2022-10-30T05:12:26.313Z,4.13
2022-10-30T05:15:36.449Z,3.83
2022-10-30T05:18:42.492Z,3.78
2022-10-30T05:21:51.200Z,4.57
2022-10-30T05:24:57.579Z,3.58
2022-10-30T05:28:04.080Z,3.72
2022-10-30T05:31:12.748Z,3.72
2022-10-30T05:34:20.839Z,3.85
2022-10-30T05:37:27.473Z,3.47
2022-10-30T05:40:34.659Z,3.70
2022-10-30T05:43:41.900Z,3.10
2022-10-30T05:46:50.157Z,4.13
2022-10-30T05:49:56.474Z,3.70
2022-10-30T05:53:04.533Z,3.90
2022-10-30T05:56:11.016Z,3.97
2022-10-30T05:59:18.903Z,3.92
2022-10-30T06:02:26.958Z,3.58
2022-10-30T06:05:34.916Z,3.30
2022-10-30T06:08:44.415Z,3.58
2022-10-30T06:11:50.578Z,3.45
2022-10-30T06:14:56.917Z,3.05
2022-10-30T06:18:04.858Z,3.23
2022-10-30T06:21:11.432Z,3.28
2022-10-30T06:24:20.389Z,3.08
2022-10-30T06:27:26.528Z,3.35
2022-10-30T06:30:35.155Z,3.50
2022-10-30T06:33:46.772Z,3.78
2022-10-30T06:36:56.122Z,3.47
2022-10-30T06:40:08.088Z,2.78
2022-10-30T06:43:18.954Z,3.00
2022-10-30T06:46:33.605Z,2.45
2022-10-30T06:49:50.987Z,2.95
2022-10-30T06:52:59.257Z,2.25
2022-10-30T06:56:15.870Z,3.25
2022-10-30T06:59:29.404Z,3.00
2022-10-30T07:02:43.479Z,3.00
2022-10-30T07:05:55.362Z,3.20
2022-10-30T07:09:03.553Z,3.03
2022-10-30T07:12:17.921Z,3.75
2022-10-30T07:15:32.144Z,3.53
2022-10-30T07:18:42.352Z,3.72
2022-10-30T07:21:52.172Z,3.50
2022-10-30T07:25:02.742Z,3.22
2022-10-30T07:28:07.718Z,3.38
2022-10-30T07:31:10.290Z,3.60
2022-10-30T07:34:13.161Z,3.20
2022-10-30T07:37:17.161Z,3.85
2022-10-30T07:40:20.533Z,3.60
2022-10-30T07:43:23.276Z,3.22
2022-10-30T07:46:25.949Z,4.15
2022-10-30T07:49:28.535Z,3.88
2022-10-30T07:52:33.929Z,3.17
2022-10-30T07:55:36.601Z,3.95
2022-10-30T07:58:45.642Z,3.25
2022-10-30T08:01:49.798Z,2.95
2022-10-30T08:04:52.589Z,3.60
2022-10-30T08:07:56.782Z,3.30
2022-10-30T08:10:59.712Z,3.70
2022-10-30T08:14:02.799Z,2.83
2022-10-30T08:17:07.563Z,3.08
2022-10-30T08:20:11.907Z,3.38
2022-10-30T08:23:17.677Z,3.45
2022-10-30T08:26:20.287Z,3.00
2022-10-30T08:29:23.004Z,3.30
2022-10-30T08:32:25.645Z,3.25
2022-10-30T08:35:28.664Z,2.63
2022-10-30T08:38:32.720Z,3.05
2022-10-30T08:41:35.327Z,3.03
2022-10-30T08:44:38.011Z,2.80
2022-10-30T08:47:40.606Z,3.20
2022-10-30T08:50:43.412Z,2.47
2022-10-30T08:53:49.077Z,2.60
2022-10-30T08:56:52.069Z,3.22
2022-10-30T08:59:54.864Z,2.78
2022-10-30T09:02:58.118Z,2.83
2022-10-30T09:06:01.474Z,3.53
2022-10-30T09:09:05.584Z,2.97
2022-10-30T09:12:08.304Z,2.90
2022-10-30T09:15:11.048Z,3.28
2022-10-30T09:18:13.853Z,3.03
2022-10-30T09:21:16.432Z,2.63
2022-10-30T09:24:20.752Z,2.85
2022-10-30T09:27:23.708Z,3.53
2022-10-30T09:30:27.087Z,2.28
2022-10-30T09:33:29.830Z,2.58
2022-10-30T09:36:33.024Z,2.30
2022-10-30T09:39:37.004Z,3.10
2022-10-30T09:42:45.865Z,2.22
2022-10-30T09:46:06.469Z,2.75
2022-10-30T09:49:29.154Z,2.22
2022-10-30T09:52:39.686Z,2.70
2022-10-30T09:55:52.185Z,2.53
2022-10-30T09:59:04.749Z,2.45
2022-10-30T10:02:22.752Z,2.45
2022-10-30T10:05:30.640Z,2.25
2022-10-30T10:08:40.435Z,2.53
2022-10-30T10:11:49.237Z,2.33
2022-10-30T10:14:53.101Z,2.40
2022-10-30T10:17:56.258Z,2.10
2022-10-30T10:21:06.608Z,2.53
2022-10-30T10:24:19.983Z,2.08
2022-10-30T10:27:46.055Z,1.90
2022-10-30T10:30:55.344Z,2.35
2022-10-30T10:34:10.559Z,2.38
2022-10-30T10:37:22.969Z,2.67
2022-10-30T10:40:39.338Z,2.20
2022-10-30T10:43:59.225Z,2.08
2022-10-30T10:47:36.005Z,2.17
2022-10-30T10:50:48.437Z,2.30
2022-10-30T10:53:56.795Z,2.10
2022-10-30T10:57:00.637Z,2.10
2022-10-30T11:00:07.634Z,2.33
2022-10-30T11:06:25.379Z,2.28
2022-10-30T11:09:28.381Z,2.70
2022-10-30T11:12:35.448Z,2.35
2022-10-30T11:15:52.462Z,2.42
2022-10-30T11:18:59.119Z,2.45
2022-10-30T11:22:03.000Z,2.58
2022-10-30T11:25:20.526Z,2.10
2022-10-30T11:28:37.032Z,1.73
2022-10-30T11:31:42.665Z,1.77
2022-10-30T11:34:45.350Z,2.05
2022-10-30T11:37:50.003Z,2.13
2022-10-30T11:40:53.740Z,1.90
2022-10-30T11:43:56.817Z,2.65
2022-10-30T11:47:01.496Z,2.78
2022-10-30T11:50:07.481Z,2.40
2022-10-30T11:53:14.479Z,2.15
2022-10-30T11:56:20.204Z,2.35
2022-10-30T11:59:25.145Z,2.00
2022-10-30T12:02:31.042Z,2.47
2022-10-30T12:05:39.608Z,2.33
2022-10-30T12:08:42.902Z,2.35
2022-10-30T12:11:46.136Z,2.38
2022-10-30T12:14:49.193Z,2.13
2022-10-30T12:17:54.444Z,2.22
2022-10-30T12:20:58.745Z,1.70
2022-10-30T12:24:06.854Z,1.80
2022-10-30T12:27:19.675Z,2.20
2022-10-30T12:30:26.509Z,2.10
2022-10-30T12:33:36.145Z,2.65
2022-10-30T12:36:46.420Z,2.58
2022-10-30T12:39:57.964Z,2.20
2022-10-30T12:43:09.450Z,2.97
2022-10-30T12:46:27.409Z,2.33
2022-10-30T12:49:41.074Z,2.20
2022-10-30T12:52:50.518Z,1.83
2022-10-30T12:55:59.819Z,1.88
2022-10-30T12:59:21.614Z,2.08
2022-10-30T13:02:36.865Z,2.05
2022-10-30T13:05:46.944Z,1.77
2022-10-30T13:09:05.303Z,1.90
2022-10-30T13:12:11.568Z,2.35
2022-10-30T13:15:23.472Z,2.20
2022-10-30T13:18:27.964Z,2.00
2022-10-30T13:21:38.393Z,2.10
2022-10-30T13:24:50.882Z,2.47
2022-10-30T13:27:58.764Z,1.95
2022-10-30T13:31:09.058Z,2.22
2022-10-30T13:34:25.720Z,2.33
2022-10-30T13:37:38.185Z,2.10
2022-10-30T13:40:44.680Z,2.50
2022-10-30T13:43:57.867Z,2.25
2022-10-30T13:47:13.763Z,2.20
2022-10-30T13:50:27.686Z,2.35
2022-10-30T13:53:36.671Z,2.42
2022-10-30T13:56:41.306Z,2.55
2022-10-30T13:59:54.252Z,2.90
2022-10-30T14:03:13.613Z,2.70
2022-10-30T14:06:29.355Z,2.95
2022-10-30T14:09:43.162Z,2.85
2022-10-30T14:12:50.619Z,2.30
2022-10-30T14:15:56.299Z,2.35
2022-10-30T14:19:01.883Z,2.65
2022-10-30T14:22:04.513Z,3.17
2022-10-30T14:25:18.176Z,2.55
2022-10-30T14:28:21.526Z,2.55
2022-10-30T14:31:35.635Z,2.67
2022-10-30T14:34:43.269Z,3.13
2022-10-30T14:37:58.811Z,2.70
2022-10-30T14:41:23.321Z,2.78
2022-10-30T14:44:43.024Z,2.50
2022-10-30T14:47:58.340Z,2.38
2022-10-30T14:51:09.156Z,2.92
2022-10-30T14:54:22.519Z,2.40
2022-10-30T14:57:48.016Z,2.95
2022-10-30T15:00:51.690Z,2.58
2022-10-30T15:04:05.384Z,3.00
2022-10-30T15:07:17.534Z,2.72
2022-10-30T15:10:29.040Z,2.80
2022-10-30T15:13:33.363Z,2.90
2022-10-30T15:16:40.888Z,2.17
2022-10-30T15:19:44.115Z,2.65
2022-10-30T15:22:50.424Z,2.78
2022-10-30T15:25:55.596Z,2.83
2022-10-30T15:29:00.061Z,2.72
2022-10-30T15:32:04.528Z,3.20
2022-10-30T15:35:16.911Z,2.70
2022-10-30T15:38:19.541Z,3.03
2022-10-30T15:41:22.188Z,2.92
2022-10-30T15:44:29.580Z,3.33
2022-10-30T15:47:32.422Z,2.90
2022-10-30T15:50:36.571Z,3.15
2022-10-30T15:53:45.169Z,3.35
2022-10-30T15:57:27.039Z,3.65
2022-10-30T16:00:23.659Z,3.60
2022-10-30T16:03:26.908Z,3.45
2022-10-30T16:06:31.569Z,3.75
2022-10-30T16:09:34.656Z,2.92
2022-10-30T16:12:39.558Z,2.70
2022-10-30T16:15:47.242Z,2.75
2022-10-30T16:18:50.296Z,2.60
2022-10-30T16:21:54.468Z,2.92
2022-10-30T16:24:58.759Z,2.70
2022-10-30T16:28:01.722Z,2.83
2022-10-30T16:31:09.946Z,3.00
2022-10-30T16:34:22.759Z,2.90
2022-10-30T16:37:29.310Z,2.70
2022-10-30T16:40:32.812Z,2.78
2022-10-30T16:43:35.949Z,2.70
2022-10-30T16:46:42.088Z,3.05
2022-10-30T16:49:49.671Z,3.10
2022-10-30T16:52:52.999Z,2.88
2022-10-30T16:55:58.366Z,3.03
2022-10-30T16:59:09.076Z,2.30
2022-10-30T17:02:19.730Z,2.28
2022-10-30T17:05:27.530Z,2.85
2022-10-30T17:08:40.620Z,2.40
2022-10-30T17:11:48.844Z,2.45
2022-10-30T17:15:08.147Z,3.13
2022-10-30T17:18:17.790Z,3.55
2022-10-30T17:21:24.449Z,3.10
2022-10-30T17:24:32.252Z,3.47
2022-10-30T17:27:50.115Z,2.90
2022-10-30T17:30:52.789Z,2.90
2022-10-30T17:34:18.499Z,3.08
2022-10-30T17:37:21.173Z,2.80
2022-10-30T17:40:23.890Z,2.78
2022-10-30T17:43:29.342Z,3.08
2022-10-30T17:46:32.121Z,3.65
2022-10-30T17:49:38.709Z,3.00
2022-10-30T17:52:41.759Z,3.08
2022-10-30T17:55:48.091Z,3.08
2022-10-30T17:58:52.141Z,3.60
2022-10-30T18:01:54.859Z,4.35
2022-10-30T18:04:59.127Z,5.15
2022-10-30T18:08:02.190Z,7.80
2022-10-30T18:11:04.893Z,3.75
2022-10-30T18:14:07.801Z,3.17
2022-10-30T18:17:10.667Z,3.78
2022-10-30T18:20:18.112Z,4.05
2022-10-30T18:26:46.393Z,3.58
2022-10-30T18:29:49.043Z,3.50
2022-10-30T18:32:52.114Z,3.92
2022-10-30T18:35:57.521Z,3.75
2022-10-30T18:39:00.124Z,4.18
2022-10-30T18:42:02.884Z,4.32
2022-10-30T18:45:18.597Z,4.10
2022-10-30T18:48:21.230Z,3.63
2022-10-30T18:51:27.400Z,3.70
2022-10-30T18:54:30.042Z,3.58
2022-10-30T18:57:33.112Z,5.32
2022-10-30T19:00:58.129Z,4.07
2022-10-30T19:04:00.816Z,4.13
2022-10-30T19:07:05.062Z,3.97
2022-10-30T19:10:08.559Z,3.20
2022-10-30T19:13:15.418Z,3.65
2022-10-30T19:16:20.167Z,3.58
2022-10-30T19:19:23.177Z,4.75
2022-10-30T19:22:27.633Z,3.25
2022-10-30T19:25:33.527Z,4.00
2022-10-30T19:28:38.212Z,3.20
2022-10-30T19:31:43.011Z,3.38
2022-10-30T19:34:49.784Z,4.15
2022-10-30T19:37:56.838Z,4.68
2022-10-30T19:41:03.733Z,4.13
2022-10-30T19:44:08.921Z,3.85
2022-10-30T19:47:14.041Z,3.83
2022-10-30T19:50:27.617Z,4.55
2022-10-30T19:53:34.316Z,3.80
2022-10-30T19:56:39.594Z,3.33
2022-10-30T19:59:44.633Z,3.00
2022-10-30T20:02:50.720Z,2.97
2022-10-30T20:05:56.421Z,2.28
2022-10-30T20:09:02.934Z,3.10
2022-10-30T20:12:08.447Z,4.10
2022-10-30T20:15:18.949Z,3.65
2022-10-30T20:18:27.837Z,3.33
2022-10-30T20:21:33.994Z,2.78
2022-10-30T20:24:42.211Z,3.45
2022-10-30T20:27:49.278Z,3.92
2022-10-30T20:30:54.879Z,2.80
2022-10-30T20:33:59.685Z,3.65
2022-10-30T20:37:04.571Z,3.45
2022-10-30T20:40:16.886Z,3.10
2022-10-30T20:43:45.983Z,2.88
2022-10-30T20:46:52.314Z,2.67
2022-10-30T20:49:56.940Z,2.30
2022-10-30T20:53:01.803Z,2.10
2022-10-30T20:56:09.915Z,2.55
2022-10-30T20:59:16.288Z,2.10
2022-10-30T21:02:21.145Z,2.10
2022-10-30T21:08:51.491Z,1.75
2022-10-30T21:11:57.663Z,2.10
2022-10-30T21:15:03.352Z,2.80
2022-10-30T21:18:10.157Z,2.53
2022-10-30T21:21:15.167Z,2.30
2022-10-30T21:24:20.033Z,2.80
2022-10-30T21:27:26.277Z,2.40
2022-10-30T21:30:31.095Z,2.88
2022-10-30T21:33:40.004Z,2.58
2022-10-30T21:36:45.003Z,2.65
2022-10-30T21:39:52.944Z,2.40
2022-10-30T21:43:03.044Z,2.35
2022-10-30T21:46:10.428Z,2.55
2022-10-30T21:49:16.647Z,2.67
2022-10-30T21:52:21.774Z,3.10
2022-10-30T21:55:26.571Z,2.85
2022-10-30T21:58:32.999Z,2.88
2022-10-30T22:01:41.077Z,2.78
2022-10-30T22:04:45.882Z,3.35
2022-10-30T22:07:50.847Z,3.53
2022-10-30T22:10:55.404Z,3.38
2022-10-30T22:14:03.071Z,2.47
2022-10-30T22:17:10.076Z,2.28
2022-10-30T22:20:14.986Z,2.88
2022-10-30T22:23:19.903Z,2.72
2022-10-30T22:26:25.770Z,2.35
2022-10-30T22:29:35.264Z,2.55
2022-10-30T22:32:41.946Z,2.10
2022-10-30T22:35:47.161Z,2.70
2022-10-30T22:38:56.938Z,2.20
2022-10-30T22:42:01.998Z,2.28
2022-10-30T22:45:09.527Z,2.75
2022-10-30T22:48:14.459Z,2.75
2022-10-30T22:51:22.245Z,2.55
2022-10-30T22:54:27.375Z,2.85
2022-10-30T22:57:32.219Z,3.30
2022-10-30T23:00:39.499Z,3.17
2022-10-30T23:03:44.852Z,2.75
2022-10-30T23:06:50.308Z,3.10
2022-10-30T23:09:57.718Z,2.47
2022-10-30T23:13:02.544Z,2.57
2022-10-30T23:16:10.233Z,2.42
2022-10-30T23:19:15.489Z,2.92
2022-10-30T23:22:20.224Z,3.08
2022-10-30T23:25:27.137Z,2.53
2022-10-30T23:28:32.458Z,2.92
2022-10-30T23:31:40.248Z,2.60
2022-10-30T23:34:47.272Z,2.40
2022-10-30T23:37:52.300Z,2.57
2022-10-30T23:40:56.922Z,2.63
2022-10-30T23:44:04.027Z,2.53
2022-10-30T23:47:10.491Z,2.13
2022-10-30T23:50:15.159Z,2.20
2022-10-30T23:53:21.565Z,2.40
2022-10-30T23:56:29.945Z,2.10
2022-10-30T23:59:34.635Z,2.30
